createdAt,value
2022-11-13T00:02:43.652Z,298.18
2022-11-13T00:07:50.889Z,298.99
2022-11-13T00:12:58.023Z,299.20
2022-11-13T00:18:05.308Z,299.87
2022-11-13T00:23:12.694Z,300.39
2022-11-13T00:28:19.813Z,300.82
2022-11-13T00:33:54.922Z,301.12
2022-11-13T00:38:37.254Z,301.56
2022-11-13T00:43:44.320Z,302.15
2022-11-13T00:48:51.593Z,302.78
2022-11-13T00:53:58.969Z,303.36
2022-11-13T00:59:07.104Z,303.38
2022-11-13T01:04:14.325Z,304.71
2022-11-13T01:09:21.628Z,304.50
2022-11-13T01:14:28.705Z,305.09
2022-11-13T01:19:35.900Z,305.85
2022-11-13T01:24:43.233Z,306.79
2022-11-13T01:29:50.412Z,306.67
2022-11-13T01:34:57.668Z,307.07
2022-11-13T01:40:04.949Z,307.22
2022-11-13T01:45:12.041Z,308.29
2022-11-13T01:50:19.228Z,307.89
2022-11-13T01:55:26.498Z,308.63
2022-11-13T02:00:33.534Z,309.45
2022-11-13T02:05:40.756Z,309.85
2022-11-13T02:10:48.077Z,309.93
2022-11-13T02:15:55.111Z,310.15
2022-11-13T02:21:02.398Z,310.76
2022-11-13T02:26:09.750Z,311.45
2022-11-13T02:31:16.792Z,311.64
2022-11-13T02:36:23.969Z,312.17
2022-11-13T02:41:31.259Z,312.53
2022-11-13T02:46:38.383Z,312.18
2022-11-13T02:51:45.592Z,313.16
2022-11-13T02:56:52.913Z,312.92
2022-11-13T03:02:00.140Z,313.25
2022-11-13T03:07:07.384Z,313.48
2022-11-13T03:12:14.707Z,314.13
2022-11-13T03:17:21.832Z,315.38
2022-11-13T03:22:29.286Z,315.24
2022-11-13T03:27:36.679Z,315.74
2022-11-13T03:32:43.847Z,315.61
2022-11-13T03:37:51.070Z,315.55
2022-11-13T03:42:59.242Z,316.78
2022-11-13T03:48:07.752Z,317.72
2022-11-13T03:53:14.932Z,317.92
2022-11-13T03:58:22.276Z,318.66
2022-11-13T04:03:29.353Z,318.02
2022-11-13T04:08:36.577Z,319.11
2022-11-13T04:13:44.278Z,319.23
2022-11-13T04:18:52.317Z,319.41
2022-11-13T04:23:59.600Z,319.57
2022-11-13T04:29:06.949Z,319.51
2022-11-13T04:34:14.129Z,320.06
2022-11-13T04:39:21.330Z,320.51
2022-11-13T04:44:28.686Z,320.14
2022-11-13T04:49:35.840Z,320.52
2022-11-13T04:54:43.047Z,321.81
2022-11-13T04:59:50.375Z,322.19
2022-11-13T05:05:03.372Z,323.14
2022-11-13T05:10:04.722Z,323.18
2022-11-13T05:15:12.161Z,323.78
2022-11-13T05:20:19.236Z,323.70
2022-11-13T05:25:26.483Z,323.37
2022-11-13T05:30:33.762Z,324.41
2022-11-13T05:35:40.848Z,324.78
2022-11-13T05:40:48.056Z,325.43
2022-11-13T05:45:55.427Z,325.63
2022-11-13T05:51:02.574Z,326.02
2022-11-13T05:56:09.827Z,326.35
2022-11-13T06:01:17.491Z,326.67
2022-11-13T06:06:24.644Z,327.09
2022-11-13T06:11:32.119Z,327.22
2022-11-13T06:16:42.112Z,326.47
2022-11-13T06:21:49.220Z,325.97
2022-11-13T06:26:56.458Z,326.43
2022-11-13T06:32:04.107Z,326.36
2022-11-13T06:37:11.236Z,326.42
2022-11-13T06:42:18.560Z,327.44
2022-11-13T06:47:25.959Z,327.21
2022-11-13T06:52:33.073Z,326.98
2022-11-13T06:57:41.105Z,327.10
2022-11-13T07:02:48.526Z,326.57
2022-11-13T07:07:56.602Z,326.89
2022-11-13T07:13:05.919Z,327.40
2022-11-13T07:18:13.331Z,328.50
2022-11-13T07:23:20.717Z,329.46
2022-11-13T07:28:28.338Z,329.07
2022-11-13T07:33:35.369Z,329.55
2022-11-13T07:38:42.482Z,330.06
2022-11-13T07:43:49.704Z,328.77
2022-11-13T07:48:57.113Z,328.89
2022-11-13T07:54:04.510Z,328.74
2022-11-13T07:59:12.582Z,329.83
2022-11-13T08:04:19.985Z,330.62
2022-11-13T08:09:27.030Z,331.25
2022-11-13T08:14:36.401Z,331.05
2022-11-13T08:19:43.771Z,330.54
2022-11-13T08:24:51.117Z,330.93
2022-11-13T08:29:58.518Z,331.64
2022-11-13T08:35:05.921Z,331.69
2022-11-13T08:40:13.066Z,334.60
2022-11-13T08:45:20.671Z,335.19
2022-11-13T08:50:28.270Z,333.00
2022-11-13T08:55:35.344Z,333.44
2022-11-13T09:00:42.570Z,333.42
2022-11-13T09:05:49.839Z,333.42
2022-11-13T09:11:03.078Z,333.70
2022-11-13T09:16:10.406Z,334.05
2022-11-13T09:21:17.751Z,337.09
2022-11-13T09:26:24.841Z,335.62
2022-11-13T09:31:32.081Z,335.52
2022-11-13T09:36:39.980Z,337.10
2022-11-13T09:41:47.171Z,336.45
2022-11-13T09:46:54.492Z,336.42
2022-11-13T09:52:06.374Z,335.81
2022-11-13T09:57:09.084Z,335.99
2022-11-13T10:02:16.325Z,335.66
2022-11-13T10:07:23.707Z,335.92
2022-11-13T10:12:30.687Z,335.85
2022-11-13T10:17:37.902Z,337.03
2022-11-13T10:22:47.824Z,336.78
2022-11-13T10:27:55.005Z,337.93
2022-11-13T10:33:02.330Z,338.41
2022-11-13T10:38:09.757Z,339.88
2022-11-13T10:43:16.908Z,340.28
2022-11-13T10:48:24.195Z,341.04
2022-11-13T10:53:31.892Z,341.42
2022-11-13T10:58:38.643Z,342.62
2022-11-13T11:03:45.916Z,343.99
2022-11-13T11:08:53.229Z,344.03
2022-11-13T11:14:00.351Z,344.22
2022-11-13T11:19:07.690Z,345.11
2022-11-13T11:24:15.058Z,345.72
2022-11-13T11:29:22.177Z,346.38
2022-11-13T11:34:29.445Z,347.01
2022-11-13T11:39:36.778Z,348.12
2022-11-13T11:44:43.928Z,348.99
2022-11-13T11:49:51.161Z,349.14
2022-11-13T11:54:58.491Z,350.47
2022-11-13T12:00:07.557Z,349.97
2022-11-13T12:05:19.717Z,350.10
2022-11-13T12:10:22.202Z,351.20
2022-11-13T12:15:29.348Z,350.83
2022-11-13T12:20:36.584Z,351.58
2022-11-13T12:25:44.053Z,352.60
2022-11-13T12:30:51.159Z,352.83
2022-11-13T12:35:58.423Z,352.80
2022-11-13T12:41:05.767Z,353.38
2022-11-13T12:46:12.928Z,352.53
2022-11-13T12:51:20.106Z,353.11
2022-11-13T12:56:27.411Z,353.58
2022-11-13T13:01:34.594Z,353.96
2022-11-13T13:06:41.829Z,355.03
2022-11-13T13:11:49.231Z,354.86
2022-11-13T13:16:56.342Z,354.66
2022-11-13T13:22:04.024Z,354.90
2022-11-13T13:27:14.522Z,355.91
2022-11-13T13:32:21.620Z,356.13
2022-11-13T13:37:28.810Z,356.45
2022-11-13T13:42:36.144Z,356.93
2022-11-13T13:47:43.214Z,357.04
2022-11-13T13:52:55.514Z,356.40
2022-11-13T13:58:05.415Z,357.01
2022-11-13T14:03:08.329Z,357.27
2022-11-13T14:08:16.490Z,358.16
2022-11-13T14:13:23.890Z,359.16
2022-11-13T14:18:30.928Z,359.58
2022-11-13T14:23:39.997Z,359.35
2022-11-13T14:28:50.996Z,358.78
2022-11-13T14:33:55.323Z,358.52
2022-11-13T14:39:02.546Z,357.43
2022-11-13T14:44:09.923Z,357.42
2022-11-13T14:49:17.256Z,357.38
2022-11-13T14:54:25.746Z,358.35
2022-11-13T14:59:33.691Z,358.53
2022-11-13T15:04:41.037Z,358.13
2022-11-13T15:09:48.113Z,357.17
2022-11-13T15:14:56.721Z,356.02
2022-11-13T15:20:09.514Z,355.64
2022-11-13T15:25:12.794Z,355.72
2022-11-13T15:30:20.795Z,356.22
2022-11-13T15:35:27.962Z,356.44
2022-11-13T15:40:35.958Z,356.42
2022-11-13T15:45:44.580Z,356.21
2022-11-13T15:50:50.480Z,355.53
2022-11-13T15:55:57.701Z,355.61
2022-11-13T16:01:05.011Z,355.67
2022-11-13T16:06:15.475Z,355.33
2022-11-13T16:11:22.782Z,355.42
2022-11-13T16:16:32.974Z,355.26
2022-11-13T16:21:40.480Z,355.46
2022-11-13T16:26:53.789Z,355.51
2022-11-13T16:32:01.181Z,355.23
2022-11-13T16:37:08.573Z,355.56
2022-11-13T16:42:17.268Z,355.14
2022-11-13T16:47:24.739Z,356.76
2022-11-13T16:52:31.978Z,356.46
2022-11-13T16:57:39.906Z,357.54
2022-11-13T17:02:47.640Z,358.19
2022-11-13T17:07:54.881Z,358.42
2022-11-13T17:13:02.119Z,358.48
2022-11-13T17:18:09.659Z,358.98
2022-11-13T17:23:18.140Z,358.04
2022-11-13T17:28:25.599Z,357.61
2022-11-13T17:33:33.330Z,357.26
2022-11-13T17:38:40.830Z,357.14
2022-11-13T17:43:49.461Z,355.98
2022-11-13T17:48:57.207Z,355.89
2022-11-13T17:54:05.712Z,355.74
2022-11-13T17:59:13.329Z,357.10
2022-11-13T18:04:21.262Z,357.19
2022-11-13T18:09:28.759Z,360.39
2022-11-13T18:14:36.478Z,360.83
2022-11-13T18:19:43.934Z,361.55
2022-11-13T18:24:51.299Z,362.76
2022-11-13T18:29:59.040Z,363.44
2022-11-13T18:35:06.743Z,362.63
2022-11-13T18:40:14.249Z,361.56
2022-11-13T18:45:21.971Z,361.57
2022-11-13T18:50:30.226Z,361.14
2022-11-13T18:55:38.119Z,361.11
2022-11-13T19:00:46.244Z,360.37
2022-11-13T19:05:54.485Z,360.37
2022-11-13T19:11:02.299Z,360.33
2022-11-13T19:16:10.315Z,360.38
2022-11-13T19:21:19.272Z,360.20
2022-11-13T19:26:28.020Z,360.23
2022-11-13T19:31:36.024Z,361.59
2022-11-13T19:36:43.765Z,362.01
2022-11-13T19:41:51.353Z,362.39
2022-11-13T19:46:58.963Z,362.21
2022-11-13T19:52:06.661Z,361.48
2022-11-13T19:57:14.302Z,361.23
2022-11-13T20:02:22.037Z,361.99
2022-11-13T20:07:29.892Z,362.70
2022-11-13T20:12:37.344Z,362.68
2022-11-13T20:17:45.062Z,363.57
2022-11-13T20:22:52.901Z,364.26
2022-11-13T20:28:00.401Z,365.09
2022-11-13T20:33:12.671Z,365.23
2022-11-13T20:38:23.215Z,364.28
2022-11-13T20:43:31.061Z,364.03
2022-11-13T20:48:38.538Z,364.12
2022-11-13T20:53:46.163Z,363.63
2022-11-13T20:58:53.731Z,363.66
2022-11-13T21:04:01.246Z,363.39
2022-11-13T21:09:09.022Z,363.74
2022-11-13T21:14:17.641Z,363.70
2022-11-13T21:19:24.877Z,363.47
2022-11-13T21:24:32.562Z,362.92
2022-11-13T21:29:39.945Z,362.71
2022-11-13T21:34:47.217Z,362.63
2022-11-13T21:39:54.584Z,362.92
2022-11-13T21:45:01.990Z,362.76
2022-11-13T21:50:09.425Z,363.21
2022-11-13T21:55:16.851Z,363.54
2022-11-13T22:00:23.948Z,363.66
2022-11-13T22:05:31.165Z,365.02
2022-11-13T22:10:38.499Z,364.78
2022-11-13T22:15:45.584Z,364.81
2022-11-13T22:20:52.731Z,365.97
2022-11-13T22:25:59.987Z,366.26
2022-11-13T22:31:07.154Z,365.59
2022-11-13T22:36:14.467Z,365.27
2022-11-13T22:41:23.524Z,365.67
2022-11-13T22:46:29.214Z,366.18
2022-11-13T22:51:36.371Z,365.88
2022-11-13T22:56:43.704Z,366.56
2022-11-13T23:01:50.896Z,367.25
2022-11-13T23:06:58.209Z,367.65
2022-11-13T23:12:05.467Z,368.97
2022-11-13T23:17:12.598Z,369.93
2022-11-13T23:22:19.831Z,371.18
2022-11-13T23:27:27.156Z,371.12
2022-11-13T23:32:34.240Z,371.59
2022-11-13T23:37:43.431Z,371.48
2022-11-13T23:42:55.693Z,372.35
2022-11-13T23:48:02.685Z,373.11
2022-11-13T23:53:09.906Z,373.91
2022-11-13T23:58:23.020Z,373.50
